Time;durP1;ratioP1;P1;durP2;ratioP2;P2;SDS_P1;SDS_P2;PMS_P1;PMS_P2;Temp;Humidity;BMP_temperature;BMP_pressure;BME280_temperature;BME280_humidity;BME280_pressure;Samples;Min_cycle;Max_cycle;Signal;HPM_P1;HPM_P2
2023/07/25 00:01:07;;;;;;;2.38;1.77;;;22.40;69.00;;;;;;5006733;28;20215;-71
2023/07/25 00:03:32;;;;;;;1.73;1.63;;;22.40;69.00;;;;;;5002571;28;20261;-71
2023/07/25 00:06:02;;;;;;;2.10;1.90;;;22.40;68.90;;;;;;4978301;28;20362;-69
2023/07/25 00:08:28;;;;;;;2.33;1.90;;;22.40;68.90;;;;;;4994246;28;20293;-70
2023/07/25 00:10:53;;;;;;;1.90;1.73;;;22.40;69.00;;;;;;4978377;28;20302;-70
2023/07/25 00:13:19;;;;;;;1.92;1.73;;;22.40;69.00;;;;;;4978258;28;20180;-70
2023/07/25 00:15:45;;;;;;;1.80;1.70;;;22.40;69.00;;;;;;4978320;28;20211;-71
2023/07/25 00:18:10;;;;;;;1.92;1.83;;;22.40;68.90;;;;;;5002646;28;20192;-72
2023/07/25 00:20:36;;;;;;;2.17;1.98;;;22.40;69.00;;;;;;4994315;28;20223;-70
2023/07/25 00:23:02;;;;;;;1.75;1.65;;;22.40;69.00;;;;;;5002340;28;20200;-70
2023/07/25 00:25:28;;;;;;;2.45;1.60;;;22.40;68.90;;;;;;4986188;28;20211;-70
2023/07/25 00:27:53;;;;;;;1.67;1.52;;;22.30;68.80;;;;;;4991422;28;20194;-69
2023/07/25 00:30:19;;;;;;;1.95;1.77;;;22.30;68.80;;;;;;4996506;28;20252;-70
2023/07/25 00:32:45;;;;;;;2.40;1.90;;;22.30;68.80;;;;;;4982335;28;20195;-70
2023/07/25 00:35:10;;;;;;;1.73;1.60;;;22.40;68.90;;;;;;4989683;28;20195;-70
2023/07/25 00:37:36;;;;;;;1.60;1.50;;;22.40;68.90;;;;;;4981163;28;20187;-70
2023/07/25 00:40:02;;;;;;;1.40;1.30;;;22.40;68.90;;;;;;5023849;28;20278;-69
2023/07/25 00:42:28;;;;;;;1.80;1.70;;;22.40;68.90;;;;;;5010253;28;20212;-69
2023/07/25 00:44:54;;;;;;;1.77;1.67;;;22.40;68.90;;;;;;4999349;28;20236;-71
2023/07/25 00:47:22;;;;;;;2.20;2.00;;;22.30;68.80;;;;;;4997115;28;20196;-69
2023/07/25 00:49:50;;;;;;;2.05;1.90;;;22.30;68.70;;;;;;5017578;28;20196;-69
2023/07/25 00:52:17;;;;;;;1.77;1.67;;;22.30;68.70;;;;;;4994052;28;20207;-70
2023/07/25 00:54:50;;;;;;;1.80;1.70;;;22.40;68.80;;;;;;5005644;28;20198;-70
2023/07/25 00:57:18;;;;;;;1.73;1.63;;;22.30;68.70;;;;;;4996788;28;20195;-70
2023/07/25 00:59:44;;;;;;;2.42;1.63;;;22.30;68.70;;;;;;5005060;28;20180;-69
2023/07/25 01:02:12;;;;;;;2.03;1.60;;;22.30;68.70;;;;;;4998205;28;20215;-69
2023/07/25 01:04:39;;;;;;;1.90;1.80;;;22.30;68.70;;;;;;5005173;28;20208;-70
2023/07/25 01:07:07;;;;;;;1.65;1.55;;;22.40;68.80;;;;;;5004151;28;20194;-70
2023/07/25 01:09:41;;;;;;;1.88;1.77;;;22.40;68.80;;;;;;4998757;28;20188;-69
2023/07/25 01:12:09;;;;;;;1.98;1.88;;;22.30;68.70;;;;;;4997076;28;20221;-70
2023/07/25 01:14:36;;;;;;;1.63;1.52;;;22.30;68.80;;;;;;4991964;28;20196;-69
2023/07/25 01:17:15;;;;;;;2.03;1.70;;;22.30;68.70;;;;;;4994274;28;20263;-69
2023/07/25 01:19:46;;;;;;;1.70;1.60;;;22.30;68.70;;;;;;5008597;28;20183;-70
2023/07/25 01:22:12;;;;;;;1.80;1.67;;;22.30;68.70;;;;;;5034261;28;20211;-70
2023/07/25 01:24:44;;;;;;;1.65;1.45;;;22.30;68.60;;;;;;5023997;28;20216;-70
2023/07/25 01:27:13;;;;;;;1.75;1.65;;;22.30;68.70;;;;;;4981433;28;20184;-71
2023/07/25 01:29:39;;;;;;;2.08;1.70;;;22.30;68.60;;;;;;4989004;28;20188;-70
2023/07/25 01:32:05;;;;;;;1.85;1.75;;;22.30;68.70;;;;;;4980843;28;20211;-70
2023/07/25 01:34:31;;;;;;;1.67;1.50;;;22.30;68.70;;;;;;4997377;28;20192;-69
2023/07/25 01:36:57;;;;;;;1.70;1.60;;;22.30;68.70;;;;;;4997567;28;20680;-70
2023/07/25 01:39:23;;;;;;;1.75;1.65;;;22.30;68.60;;;;;;4988824;28;20202;-69
2023/07/25 01:41:49;;;;;;;1.95;1.75;;;22.30;68.60;;;;;;5005229;28;20250;-69
2023/07/25 01:44:14;;;;;;;2.35;1.70;;;22.30;68.60;;;;;;4988486;28;20191;-70
2023/07/25 01:46:41;;;;;;;1.60;1.50;;;22.30;68.60;;;;;;5016550;28;20202;-70
2023/07/25 01:49:11;;;;;;;1.70;1.60;;;22.30;68.60;;;;;;5010374;28;20195;-70
2023/07/25 01:51:37;;;;;;;1.70;1.60;;;22.30;68.70;;;;;;4996603;28;20207;-70
2023/07/25 01:54:03;;;;;;;2.00;1.77;;;22.30;68.70;;;;;;5002943;28;20209;-69
2023/07/25 01:56:29;;;;;;;1.70;1.60;;;22.30;68.60;;;;;;5007020;28;20207;-70
2023/07/25 01:58:55;;;;;;;1.70;1.60;;;22.30;68.70;;;;;;4980204;28;20180;-70
2023/07/25 02:01:21;;;;;;;1.90;1.80;;;22.30;68.70;;;;;;4996515;28;20211;-69
2023/07/25 02:03:47;;;;;;;1.60;1.50;;;22.30;68.70;;;;;;5025701;28;20191;-70
2023/07/25 02:06:13;;;;;;;1.75;1.65;;;22.20;68.60;;;;;;5016361;28;20215;-70
2023/07/25 02:08:39;;;;;;;2.10;1.70;;;22.30;68.70;;;;;;5013872;28;20215;-70
2023/07/25 02:11:05;;;;;;;1.88;1.75;;;22.30;68.70;;;;;;4985747;28;20211;-69
2023/07/25 02:13:30;;;;;;;1.60;1.45;;;22.20;68.50;;;;;;5025028;28;20184;-69
2023/07/25 02:15:56;;;;;;;1.95;1.45;;;22.30;68.60;;;;;;5003558;28;20552;-70
2023/07/25 02:18:22;;;;;;;1.75;1.65;;;22.30;68.60;;;;;;5012139;28;20191;-70
2023/07/25 02:20:47;;;;;;;1.83;1.67;;;22.20;68.40;;;;;;4996013;28;20216;-69
2023/07/25 02:23:13;;;;;;;1.58;1.40;;;22.30;68.60;;;;;;5003917;28;20196;-70
2023/07/25 02:25:39;;;;;;;1.70;1.60;;;22.30;68.60;;;;;;4998552;28;20212;-69
2023/07/25 02:28:05;;;;;;;1.60;1.50;;;22.30;68.60;;;;;;5001975;28;20188;-69
2023/07/25 02:30:30;;;;;;;1.63;1.52;;;22.20;68.40;;;;;;4979707;28;20250;-70
2023/07/25 02:32:56;;;;;;;1.50;1.40;;;22.30;68.60;;;;;;4980140;28;20215;-71
2023/07/25 02:35:22;;;;;;;1.75;1.65;;;22.30;68.60;;;;;;5013615;28;20188;-70
2023/07/25 02:37:48;;;;;;;1.58;1.48;;;22.20;68.40;;;;;;4995679;28;20667;-69
2023/07/25 02:40:13;;;;;;;1.75;1.65;;;22.20;68.40;;;;;;4995876;28;20207;-69
2023/07/25 02:42:39;;;;;;;1.60;1.50;;;22.30;68.60;;;;;;4995977;28;20216;-69
2023/07/25 02:45:06;;;;;;;1.63;1.52;;;22.20;68.50;;;;;;4996028;28;20212;-69
2023/07/25 02:47:31;;;;;;;1.60;1.50;;;22.20;68.40;;;;;;4979258;28;20196;-70
2023/07/25 02:49:57;;;;;;;1.52;1.42;;;22.30;68.60;;;;;;4987662;28;20200;-69
2023/07/25 02:52:23;;;;;;;1.38;1.27;;;22.20;68.40;;;;;;4979414;28;20637;-70
2023/07/25 02:54:48;;;;;;;1.70;1.60;;;22.20;68.50;;;;;;4995734;28;20290;-70
2023/07/25 02:57:14;;;;;;;1.95;1.75;;;22.30;68.60;;;;;;5001950;28;20236;-69
2023/07/25 02:59:40;;;;;;;1.65;1.55;;;22.20;68.50;;;;;;4988983;28;20188;-69
2023/07/25 03:02:06;;;;;;;1.65;1.55;;;22.20;68.50;;;;;;4979549;28;20200;-70
2023/07/25 03:04:32;;;;;;;2.03;1.67;;;22.20;68.50;;;;;;4995222;28;20246;-69
2023/07/25 03:06:58;;;;;;;1.90;1.73;;;22.20;68.40;;;;;;4979249;28;20250;-70
2023/07/25 03:09:24;;;;;;;1.92;1.77;;;22.30;68.60;;;;;;5012716;28;20188;-69
2023/07/25 03:11:49;;;;;;;3.13;1.63;;;22.20;68.50;;;;;;5003216;28;20234;-70
2023/07/25 03:14:15;;;;;;;1.80;1.70;;;22.20;68.40;;;;;;5010074;28;20194;-71
2023/07/25 03:16:41;;;;;;;4.07;1.90;;;22.20;68.50;;;;;;4998538;28;20188;-69
2023/07/25 03:19:06;;;;;;;2.40;2.10;;;22.20;68.50;;;;;;5025962;28;20381;-70
2023/07/25 03:21:32;;;;;;;1.90;1.70;;;22.20;68.60;;;;;;4979168;28;20230;-70
2023/07/25 03:23:58;;;;;;;1.85;1.65;;;22.20;68.70;;;;;;4999101;28;20239;-70
2023/07/25 03:26:24;;;;;;;1.80;1.70;;;22.20;68.70;;;;;;4989501;28;20215;-70
2023/07/25 03:28:49;;;;;;;2.08;1.85;;;22.20;68.70;;;;;;5003576;28;20203;-70
2023/07/25 03:31:15;;;;;;;1.63;1.50;;;22.20;68.70;;;;;;4978692;28;20208;-69
2023/07/25 03:33:41;;;;;;;1.67;1.58;;;22.20;68.70;;;;;;4995004;28;20184;-69
2023/07/25 03:36:07;;;;;;;2.20;2.00;;;22.20;68.90;;;;;;4994928;28;20199;-70
2023/07/25 03:38:33;;;;;;;1.90;1.50;;;22.20;68.80;;;;;;4994409;28;20180;-70
2023/07/25 03:40:59;;;;;;;1.73;1.63;;;22.20;68.80;;;;;;4994605;28;20204;-69
2023/07/25 03:43:24;;;;;;;1.77;1.67;;;22.20;69.00;;;;;;4995031;28;20188;-70
2023/07/25 03:45:50;;;;;;;1.80;1.67;;;22.20;68.90;;;;;;4978422;28;20216;-71
2023/07/25 03:48:16;;;;;;;1.60;1.50;;;22.20;69.00;;;;;;4994666;28;20180;-71
2023/07/25 03:50:42;;;;;;;1.85;1.75;;;22.20;69.00;;;;;;4978398;28;20180;-70
2023/07/25 03:53:07;;;;;;;1.73;1.63;;;22.20;69.10;;;;;;4977271;28;20185;-69
2023/07/25 03:55:33;;;;;;;1.58;1.48;;;22.20;69.00;;;;;;5015163;28;20191;-70
2023/07/25 03:57:59;;;;;;;1.70;1.60;;;22.20;69.00;;;;;;4994366;28;20196;-70
2023/07/25 04:00:25;;;;;;;2.10;1.92;;;22.20;69.10;;;;;;5001683;28;20195;-69
2023/07/25 04:02:50;;;;;;;2.03;1.92;;;22.20;69.00;;;;;;4995719;28;20697;-70
2023/07/25 04:05:16;;;;;;;2.05;1.85;;;22.20;69.10;;;;;;4983989;28;20219;-70
2023/07/25 04:07:42;;;;;;;1.90;1.70;;;22.20;69.00;;;;;;5004752;28;20191;-70
2023/07/25 04:10:08;;;;;;;1.63;1.52;;;22.20;69.10;;;;;;4994553;28;20176;-71
2023/07/25 04:12:34;;;;;;;1.98;1.88;;;22.20;69.10;;;;;;4994195;28;20278;-70
2023/07/25 04:15:00;;;;;;;2.00;1.88;;;22.20;69.10;;;;;;4990069;28;20191;-70
2023/07/25 04:17:25;;;;;;;2.35;1.85;;;22.20;69.00;;;;;;4998971;28;20267;-70
2023/07/25 04:19:51;;;;;;;2.10;1.98;;;22.20;69.10;;;;;;4994368;28;20202;-69
2023/07/25 04:22:17;;;;;;;2.10;1.90;;;22.20;69.20;;;;;;5036274;23;20241;-67
2023/07/25 04:24:43;;;;;;;1.88;1.77;;;22.20;69.30;;;;;;5052535;28;20217;-67
2023/07/25 04:27:08;;;;;;;1.85;1.75;;;22.20;69.20;;;;;;5030093;28;20195;-67
2023/07/25 04:29:34;;;;;;;2.10;1.95;;;22.20;69.30;;;;;;5030190;28;20183;-67
2023/07/25 04:32:00;;;;;;;2.20;1.98;;;22.20;69.30;;;;;;5026826;28;20200;-68
2023/07/25 04:34:25;;;;;;;2.05;1.85;;;22.20;69.30;;;;;;5010764;28;20179;-66
2023/07/25 04:36:51;;;;;;;2.10;1.90;;;22.20;69.30;;;;;;5004788;28;20666;-67
2023/07/25 04:39:17;;;;;;;1.70;1.60;;;22.20;69.30;;;;;;5018014;28;20262;-67
2023/07/25 04:41:43;;;;;;;1.88;1.75;;;22.20;69.30;;;;;;5036788;28;20272;-67
2023/07/25 04:44:08;;;;;;;2.13;1.92;;;22.30;69.40;;;;;;5026041;28;20210;-67
2023/07/25 04:46:34;;;;;;;2.30;2.05;;;22.20;69.30;;;;;;5026657;28;20642;-67
2023/07/25 04:49:00;;;;;;;2.67;2.10;;;22.20;69.30;;;;;;5025359;28;20183;-67
2023/07/25 04:51:26;;;;;;;2.22;2.03;;;22.20;69.30;;;;;;5017520;28;20254;-67
2023/07/25 04:53:52;;;;;;;3.10;2.45;;;22.20;69.30;;;;;;5040766;28;20186;-67
2023/07/25 04:56:18;;;;;;;2.08;1.88;;;22.20;69.30;;;;;;5034296;28;20187;-67
2023/07/25 04:58:43;;;;;;;2.15;1.95;;;22.20;69.40;;;;;;5017236;28;20184;-67
2023/07/25 05:01:10;;;;;;;2.17;2.00;;;22.20;69.40;;;;;;5029767;28;20203;-66
2023/07/25 05:03:36;;;;;;;2.38;2.17;;;22.20;69.40;;;;;;5035367;28;20199;-67
2023/07/25 05:06:01;;;;;;;2.50;2.30;;;22.20;69.60;;;;;;5016976;28;20222;-66
2023/07/25 05:08:27;;;;;;;1.98;1.88;;;22.20;69.50;;;;;;5033383;28;20202;-67
2023/07/25 05:10:53;;;;;;;2.17;1.98;;;22.20;69.60;;;;;;5034903;28;20206;-67
2023/07/25 05:13:19;;;;;;;1.90;1.80;;;22.20;69.70;;;;;;5034929;28;20294;-68
2023/07/25 05:15:45;;;;;;;2.30;2.10;;;22.20;69.60;;;;;;5007164;28;20288;-68
2023/07/25 05:18:11;;;;;;;2.45;2.00;;;22.20;69.60;;;;;;5049198;28;20179;-68
2023/07/25 05:20:37;;;;;;;2.30;2.10;;;22.20;69.60;;;;;;5034361;28;20228;-68
2023/07/25 05:23:03;;;;;;;2.40;2.20;;;22.20;69.90;;;;;;5052311;22;20230;-67
2023/07/25 05:25:28;;;;;;;3.60;2.47;;;22.20;69.80;;;;;;5027251;28;20604;-67
2023/07/25 05:27:54;;;;;;;2.38;2.17;;;22.20;69.80;;;;;;5030977;28;20199;-67
2023/07/25 05:30:20;;;;;;;1.85;1.75;;;22.20;69.80;;;;;;5035732;28;20184;-67
2023/07/25 05:32:48;;;;;;;2.30;2.15;;;22.20;69.80;;;;;;5013871;28;20207;-67
2023/07/25 05:35:13;;;;;;;2.25;1.92;;;22.20;69.80;;;;;;4997105;28;20575;-67
2023/07/25 05:37:39;;;;;;;2.40;2.20;;;22.20;69.80;;;;;;5015524;28;20195;-67
2023/07/25 05:40:06;;;;;;;2.47;2.28;;;22.20;69.80;;;;;;5020718;28;20202;-67
2023/07/25 05:42:32;;;;;;;2.53;2.33;;;22.20;70.00;;;;;;5033248;28;20257;-67
2023/07/25 05:44:59;;;;;;;2.47;2.17;;;22.20;69.90;;;;;;5017481;28;20687;-67
2023/07/25 05:47:27;;;;;;;3.17;2.10;;;22.20;69.80;;;;;;5022447;28;20219;-67
2023/07/25 05:49:53;;;;;;;2.58;2.38;;;22.20;69.90;;;;;;5032912;28;20639;-67
2023/07/25 05:52:19;;;;;;;2.20;2.00;;;22.20;70.00;;;;;;5015134;28;20203;-67
2023/07/25 05:54:44;;;;;;;2.40;2.20;;;22.20;69.90;;;;;;5040547;28;20194;-67
2023/07/25 05:57:10;;;;;;;2.63;2.42;;;22.20;69.80;;;;;;5030381;28;20188;-67
2023/07/25 05:59:36;;;;;;;2.53;2.30;;;22.20;69.60;;;;;;5010717;28;20183;-67
2023/07/25 06:02:03;;;;;;;2.03;1.83;;;22.20;69.70;;;;;;5006975;28;20733;-67
2023/07/25 06:04:30;;;;;;;2.15;1.95;;;22.20;69.80;;;;;;5015986;28;20211;-67
2023/07/25 06:06:55;;;;;;;1.98;1.88;;;22.20;69.60;;;;;;5030950;28;20196;-67
2023/07/25 06:09:21;;;;;;;1.92;1.80;;;22.20;69.60;;;;;;5030742;28;20186;-67
2023/07/25 06:11:47;;;;;;;2.28;2.08;;;22.20;69.70;;;;;;5035477;28;20238;-67
2023/07/25 06:14:13;;;;;;;2.38;2.17;;;22.20;69.60;;;;;;5019937;28;20188;-67
2023/07/25 06:16:40;;;;;;;2.47;1.90;;;22.20;69.50;;;;;;5019776;28;20189;-67
2023/07/25 06:19:06;;;;;;;2.08;1.98;;;22.20;69.60;;;;;;5027974;28;20272;-67
2023/07/25 06:21:32;;;;;;;2.10;1.90;;;22.20;70.40;;;;;;5046730;28;20721;-67
2023/07/25 06:23:57;;;;;;;2.20;1.95;;;22.20;69.60;;;;;;5057968;22;20349;-68
2023/07/25 06:26:23;;;;;;;2.42;2.22;;;22.20;69.50;;;;;;5009129;28;20215;-68
2023/07/25 06:28:51;;;;;;;2.25;2.05;;;22.20;69.50;;;;;;5031537;28;20183;-68
2023/07/25 06:31:16;;;;;;;1.80;1.70;;;22.30;69.60;;;;;;5020966;28;20211;-68
2023/07/25 06:36:17;;;;;;;2.20;2.00;;;22.30;69.60;;;;;;4974782;28;20216;-69
2023/07/25 06:38:43;;;;;;;2.00;1.90;;;22.30;69.50;;;;;;4977612;28;20191;-69
2023/07/25 06:41:08;;;;;;;2.47;2.05;;;22.30;69.70;;;;;;5000157;28;20207;-68
2023/07/25 06:43:34;;;;;;;2.05;1.90;;;22.30;69.70;;;;;;4989235;28;20186;-65
2023/07/25 06:46:02;;;;;;;1.90;1.80;;;22.30;69.80;;;;;;4993014;28;20220;-68
2023/07/25 06:48:28;;;;;;;1.73;1.63;;;22.30;69.70;;;;;;4995255;28;20221;-67
2023/07/25 06:50:53;;;;;;;1.85;1.75;;;22.30;69.80;;;;;;5003810;28;20206;-68
2023/07/25 06:53:19;;;;;;;1.70;1.60;;;22.30;69.70;;;;;;4995523;28;20188;-68
2023/07/25 06:55:46;;;;;;;1.55;1.45;;;22.30;69.70;;;;;;5015147;28;20203;-68
2023/07/25 06:58:11;;;;;;;2.10;1.90;;;22.20;69.60;;;;;;4995321;28;20191;-67
2023/07/25 07:00:37;;;;;;;1.80;1.70;;;22.30;69.70;;;;;;4995510;28;20188;-68
2023/07/25 07:03:05;;;;;;;2.10;1.70;;;22.30;69.70;;;;;;4979294;28;20195;-68
2023/07/25 07:05:32;;;;;;;2.90;1.90;;;22.20;69.70;;;;;;5012697;28;20211;-67
2023/07/25 07:07:59;;;;;;;1.70;1.60;;;22.30;69.80;;;;;;5011449;28;20192;-68
2023/07/25 07:10:25;;;;;;;3.88;1.98;;;22.30;69.70;;;;;;4995567;28;20185;-67
2023/07/25 07:12:53;;;;;;;2.03;1.83;;;22.30;69.70;;;;;;4995682;28;20187;-67
2023/07/25 07:15:24;;;;;;;1.90;1.80;;;22.30;69.70;;;;;;5003718;28;20208;-67
2023/07/25 07:17:54;;;;;;;2.25;1.80;;;22.30;69.70;;;;;;4994766;28;20199;-68
2023/07/25 07:20:20;;;;;;;1.73;1.63;;;22.30;70.40;;;;;;5014691;28;20674;-67
2023/07/25 07:22:46;;;;;;;1.65;1.55;;;22.30;69.70;;;;;;5016634;28;20187;-67
2023/07/25 07:25:13;;;;;;;1.80;1.70;;;22.30;69.70;;;;;;4995029;28;20219;-68
2023/07/25 07:27:38;;;;;;;2.10;1.80;;;22.30;69.80;;;;;;5011080;28;20711;-67
2023/07/25 07:30:07;;;;;;;1.90;1.70;;;22.30;69.80;;;;;;5011209;28;20188;-67
2023/07/25 07:32:32;;;;;;;2.47;1.92;;;22.30;69.70;;;;;;5011259;28;20256;-68
2023/07/25 07:34:58;;;;;;;2.00;1.90;;;22.30;69.70;;;;;;4992866;28;20227;-67
2023/07/25 07:37:24;;;;;;;2.00;1.85;;;22.30;69.70;;;;;;5014337;28;20193;-67
2023/07/25 07:39:49;;;;;;;2.13;1.85;;;22.30;69.70;;;;;;4990779;28;20203;-68
2023/07/25 07:42:15;;;;;;;1.50;1.40;;;22.30;69.80;;;;;;5010705;28;20192;-67
2023/07/25 07:44:41;;;;;;;1.60;1.50;;;22.30;69.80;;;;;;4988444;28;20217;-67
2023/07/25 07:47:07;;;;;;;1.70;1.60;;;22.30;69.70;;;;;;4982815;28;20279;-68
2023/07/25 07:49:36;;;;;;;1.80;1.52;;;22.30;69.80;;;;;;5007671;28;20192;-67
2023/07/25 07:52:02;;;;;;;1.80;1.70;;;22.30;69.80;;;;;;5006152;28;20189;-68
2023/07/25 07:54:28;;;;;;;1.70;1.60;;;22.30;69.90;;;;;;5010928;28;20203;-68
2023/07/25 07:56:53;;;;;;;1.92;1.80;;;22.30;69.70;;;;;;4994653;28;20560;-68
2023/07/25 07:59:19;;;;;;;1.58;1.48;;;22.30;69.90;;;;;;5006854;28;20200;-68
2023/07/25 08:01:45;;;;;;;2.00;1.45;;;22.30;69.90;;;;;;4981584;28;20184;-67
2023/07/25 08:04:11;;;;;;;1.73;1.63;;;22.40;70.10;;;;;;5012253;28;20211;-68
2023/07/25 08:06:37;;;;;;;1.80;1.70;;;22.30;70.00;;;;;;4984047;28;20235;-68
2023/07/25 08:09:02;;;;;;;1.70;1.60;;;22.30;70.00;;;;;;4994003;28;20191;-68
2023/07/25 08:11:28;;;;;;;1.83;1.73;;;22.30;69.90;;;;;;4986116;28;20204;-67
2023/07/25 08:13:54;;;;;;;1.55;1.45;;;22.30;70.00;;;;;;4985916;28;20192;-68
2023/07/25 08:16:19;;;;;;;1.67;1.58;;;22.30;69.90;;;;;;5002297;28;20238;-68
2023/07/25 08:18:45;;;;;;;1.70;1.60;;;22.30;70.00;;;;;;5003841;28;20185;-67
2023/07/25 08:21:11;;;;;;;1.70;1.60;;;22.40;70.10;;;;;;4992637;28;20283;-67
2023/07/25 08:23:37;;;;;;;1.63;1.52;;;22.30;70.10;;;;;;4978420;28;20203;-67
2023/07/25 08:26:02;;;;;;;2.05;1.85;;;22.30;70.20;;;;;;5009561;28;20219;-67
2023/07/25 08:28:28;;;;;;;2.53;1.48;;;22.30;70.20;;;;;;5002890;28;20180;-70
2023/07/25 08:31:07;;;;;;;1.92;1.73;;;22.30;70.30;;;;;;4994309;28;20192;-70
2023/07/25 08:33:36;;;;;;;2.03;1.73;;;22.30;70.30;;;;;;4995553;28;20194;-69
2023/07/25 08:36:03;;;;;;;2.08;1.90;;;22.40;70.20;;;;;;4969697;28;20221;-67
2023/07/25 08:38:29;;;;;;;1.98;1.52;;;22.30;70.30;;;;;;4977712;28;20216;-69
2023/07/25 08:41:24;;;;;;;1.80;1.70;;;22.40;70.40;;;;;;5002990;28;20215;-68
2023/07/25 08:43:53;;;;;;;2.03;1.65;;;22.40;70.30;;;;;;4981678;28;20214;-67
2023/07/25 08:46:20;;;;;;;1.92;1.83;;;22.30;70.30;;;;;;5002295;28;20212;-67
2023/07/25 08:48:48;;;;;;;2.38;1.60;;;22.30;70.30;;;;;;4971632;28;20220;-67
2023/07/25 08:51:21;;;;;;;1.90;1.80;;;22.40;70.30;;;;;;4974584;28;20235;-67
2023/07/25 08:54:05;;;;;;;1.63;1.52;;;22.40;70.60;;;;;;5019041;28;20193;-68
2023/07/25 08:56:34;;;;;;;1.85;1.70;;;22.40;70.30;;;;;;5006998;28;20193;-68
2023/07/25 08:59:02;;;;;;;1.50;1.40;;;22.40;70.20;;;;;;4982325;28;20197;-68
2023/07/25 09:01:28;;;;;;;1.80;1.70;;;22.40;70.30;;;;;;5003313;28;20188;-68
2023/07/25 09:03:56;;;;;;;1.85;1.60;;;22.40;70.30;;;;;;4990375;28;20185;-68
2023/07/25 09:06:22;;;;;;;1.67;1.58;;;22.40;70.30;;;;;;5009128;28;20230;-68
2023/07/25 09:08:48;;;;;;;1.67;1.58;;;22.40;70.40;;;;;;4987579;28;20197;-68
2023/07/25 09:11:19;;;;;;;1.98;1.88;;;22.40;70.30;;;;;;5008088;28;20192;-68
2023/07/25 09:13:45;;;;;;;1.67;1.58;;;22.40;70.30;;;;;;5010245;28;20195;-68
2023/07/25 09:16:11;;;;;;;1.60;1.50;;;22.40;70.30;;;;;;5000604;28;20195;-67
2023/07/25 09:18:37;;;;;;;1.70;1.60;;;22.40;70.30;;;;;;4996231;28;20196;-68
2023/07/25 09:21:03;;;;;;;1.70;1.60;;;22.40;70.30;;;;;;5011227;28;20207;-67
2023/07/25 09:23:29;;;;;;;1.55;1.45;;;22.40;70.20;;;;;;5011400;28;20267;-68
2023/07/25 09:26:06;;;;;;;1.55;1.45;;;22.40;70.10;;;;;;5014387;28;20230;-68
2023/07/25 09:28:33;;;;;;;1.80;1.70;;;22.40;70.30;;;;;;5005752;28;20466;-68
2023/07/25 09:31:05;;;;;;;1.70;1.60;;;22.40;70.20;;;;;;4993801;28;20243;-68
2023/07/25 09:33:31;;;;;;;1.65;1.40;;;22.40;70.40;;;;;;5013595;28;20266;-68
2023/07/25 09:35:57;;;;;;;1.60;1.50;;;22.40;70.30;;;;;;5012217;28;20256;-67
2023/07/25 09:38:23;;;;;;;1.38;1.27;;;22.40;70.40;;;;;;4996942;28;20203;-68
2023/07/25 09:40:49;;;;;;;1.60;1.50;;;22.40;70.40;;;;;;5013290;28;20213;-68
2023/07/25 09:43:26;;;;;;;1.83;1.73;;;22.40;70.30;;;;;;4996875;28;20191;-68
2023/07/25 09:45:53;;;;;;;2.20;1.67;;;22.40;70.10;;;;;;4996889;28;20294;-68
2023/07/25 09:48:19;;;;;;;1.63;1.52;;;22.40;70.10;;;;;;4995017;28;20192;-67
2023/07/25 09:50:46;;;;;;;1.70;1.60;;;22.40;70.20;;;;;;5015082;28;20192;-68
2023/07/25 09:53:17;;;;;;;1.60;1.33;;;22.40;70.20;;;;;;4996146;28;20199;-68
2023/07/25 09:55:44;;;;;;;1.42;1.33;;;22.40;70.20;;;;;;5009305;28;20219;-67
2023/07/25 09:58:11;;;;;;;2.22;1.40;;;22.40;70.20;;;;;;5011788;28;20255;-69
2023/07/25 10:00:37;;;;;;;1.70;1.30;;;22.50;70.20;;;;;;5000379;28;20194;-68
2023/07/25 10:03:07;;;;;;;1.45;1.35;;;22.40;70.20;;;;;;5024505;28;20686;-68
2023/07/25 10:05:34;;;;;;;1.83;1.58;;;22.40;70.10;;;;;;4993451;28;20217;-68
2023/07/25 10:08:01;;;;;;;1.52;1.40;;;22.40;70.10;;;;;;5008111;28;20183;-68
2023/07/25 10:10:28;;;;;;;1.92;1.67;;;22.40;69.90;;;;;;5007699;28;20617;-68
2023/07/25 10:12:54;;;;;;;1.60;1.50;;;22.40;70.00;;;;;;4979915;28;20199;-68
2023/07/25 10:15:20;;;;;;;2.22;1.23;;;22.50;70.10;;;;;;5013853;28;20216;-68
2023/07/25 10:17:46;;;;;;;1.60;1.50;;;22.50;70.10;;;;;;5001788;28;20808;-68
2023/07/25 10:20:24;;;;;;;1.50;1.40;;;22.50;70.20;;;;;;4998867;28;20203;-69
2023/07/25 10:22:50;;;;;;;1.60;1.50;;;22.50;70.00;;;;;;5011889;28;20266;-69
2023/07/25 10:25:26;;;;;;;1.73;1.50;;;22.50;70.10;;;;;;5004578;28;20306;-68
2023/07/25 10:27:58;;;;;;;1.88;1.52;;;22.50;70.10;;;;;;5003011;28;20212;-68
2023/07/25 10:30:27;;;;;;;1.50;1.40;;;22.50;70.00;;;;;;5010141;28;20226;-71
2023/07/25 10:33:03;;;;;;;1.48;1.38;;;22.50;70.00;;;;;;5021763;28;20203;-70
2023/07/25 10:35:49;;;;;;;1.52;1.42;;;22.50;70.00;;;;;;5009385;28;20283;-71
2023/07/25 10:38:33;;;;;;;2.28;1.60;;;22.50;69.90;;;;;;4992297;28;20285;-71
2023/07/25 10:41:08;;;;;;;1.60;1.50;;;22.50;69.70;;;;;;5005331;28;20191;-71
2023/07/25 10:44:00;;;;;;;1.80;1.30;;;22.50;69.70;;;;;;4984725;28;20199;-71
2023/07/25 10:46:33;;;;;;;1.98;1.80;;;22.50;69.70;;;;;;4987099;28;20311;-71
2023/07/25 10:49:02;;;;;;;2.15;1.58;;;22.50;69.70;;;;;;5000402;28;20271;-71
2023/07/25 10:51:51;;;;;;;1.67;1.58;;;22.50;69.70;;;;;;4997124;28;20184;-71
2023/07/25 10:54:19;;;;;;;2.47;1.50;;;22.50;69.60;;;;;;4987213;28;20753;-72
2023/07/25 10:57:06;;;;;;;2.03;1.50;;;22.40;69.50;;;;;;5007687;28;20195;-70
2023/07/25 10:59:32;;;;;;;1.88;1.55;;;22.40;69.50;;;;;;5010664;28;20295;-68
2023/07/25 11:01:58;;;;;;;2.55;1.80;;;22.50;69.70;;;;;;5011873;28;20259;-68
2023/07/25 11:04:30;;;;;;;1.60;1.50;;;22.50;69.70;;;;;;5004957;28;20207;-68
2023/07/25 11:07:12;;;;;;;2.00;1.52;;;22.50;69.70;;;;;;5017328;28;20695;-68
2023/07/25 11:09:44;;;;;;;1.63;1.40;;;22.50;69.70;;;;;;5016790;28;20187;-68
2023/07/25 11:12:11;;;;;;;1.52;1.42;;;22.50;69.70;;;;;;5003408;28;20188;-68
2023/07/25 11:14:42;;;;;;;1.65;1.55;;;22.50;70.40;;;;;;4989805;28;20195;-68
2023/07/25 11:17:11;;;;;;;1.58;1.45;;;22.50;69.70;;;;;;4998628;28;20192;-68
2023/07/25 11:19:37;;;;;;;1.52;1.42;;;22.50;69.60;;;;;;4986811;28;20188;-68
2023/07/25 11:22:11;;;;;;;1.80;1.63;;;22.50;69.70;;;;;;5011069;28;20207;-68
2023/07/25 11:24:43;;;;;;;1.30;1.20;;;22.50;69.70;;;;;;5007804;28;20200;-69
2023/07/25 11:27:10;;;;;;;1.65;1.48;;;22.50;69.70;;;;;;4985939;28;20217;-70
2023/07/25 11:29:36;;;;;;;2.15;1.60;;;22.50;69.70;;;;;;5010621;28;20215;-69
2023/07/25 11:32:02;;;;;;;1.77;1.50;;;22.50;69.70;;;;;;5015405;28;20188;-68
2023/07/25 11:34:28;;;;;;;2.00;1.30;;;22.50;69.70;;;;;;5009266;28;20259;-68
2023/07/25 11:36:54;;;;;;;1.90;1.50;;;22.50;69.60;;;;;;4986642;28;20184;-68
2023/07/25 11:39:21;;;;;;;1.70;1.60;;;22.50;69.50;;;;;;5001362;28;20275;-67
2023/07/25 11:41:48;;;;;;;1.73;1.50;;;22.50;69.60;;;;;;5011369;28;20271;-68
2023/07/25 11:44:17;;;;;;;1.58;1.48;;;22.50;69.60;;;;;;5011325;28;20208;-68
2023/07/25 11:46:52;;;;;;;1.48;1.38;;;22.50;69.50;;;;;;5003346;28;20208;-68
2023/07/25 11:49:20;;;;;;;1.90;1.52;;;22.50;69.40;;;;;;5011031;28;20195;-68
2023/07/25 11:51:47;;;;;;;2.05;1.50;;;22.50;69.40;;;;;;4998981;28;20192;-68
2023/07/25 11:54:15;;;;;;;1.67;1.58;;;22.60;69.40;;;;;;4991081;28;20211;-68
2023/07/25 11:56:41;;;;;;;1.58;1.48;;;22.60;69.40;;;;;;4994301;28;20595;-70
2023/07/25 11:59:12;;;;;;;1.27;1.17;;;22.50;69.10;;;;;;5010692;28;20196;-68
2023/07/25 12:01:38;;;;;;;1.33;1.23;;;22.50;69.20;;;;;;5008260;28;20196;-68
2023/07/25 12:04:15;;;;;;;1.75;1.65;;;22.50;69.10;;;;;;5006476;28;20674;-68
2023/07/25 12:06:42;;;;;;;1.73;1.38;;;22.60;69.20;;;;;;4991699;28;20327;-68
2023/07/25 12:09:07;;;;;;;1.40;1.30;;;22.50;69.10;;;;;;5006657;28;20267;-68
2023/07/25 12:11:42;;;;;;;1.67;1.52;;;22.50;69.10;;;;;;4987553;28;20199;-68
2023/07/25 12:14:12;;;;;;;1.50;1.35;;;22.50;69.30;;;;;;4986227;28;20218;-68
2023/07/25 12:16:42;;;;;;;1.55;1.45;;;22.50;69.20;;;;;;4994231;28;20194;-68
2023/07/25 12:19:11;;;;;;;1.88;1.45;;;22.50;69.20;;;;;;4978324;28;20190;-68
2023/07/25 12:21:41;;;;;;;1.55;1.45;;;22.50;69.20;;;;;;5009326;28;20287;-68
2023/07/25 12:24:11;;;;;;;1.52;1.42;;;22.50;69.50;;;;;;5010403;28;20699;-68
2023/07/25 12:26:56;;;;;;;1.40;1.30;;;22.50;69.50;;;;;;4985767;28;20254;-68
2023/07/25 12:29:24;;;;;;;2.15;1.48;;;22.60;69.70;;;;;;5011751;28;20641;-68
2023/07/25 12:31:52;;;;;;;1.45;1.30;;;22.50;69.60;;;;;;4990231;28;20272;-68
2023/07/25 12:34:21;;;;;;;2.60;1.50;;;22.50;69.60;;;;;;4989862;28;20216;-70
2023/07/25 12:36:51;;;;;;;1.60;1.50;;;22.60;69.60;;;;;;5007194;28;20191;-70
2023/07/25 12:39:17;;;;;;;1.20;1.10;;;22.50;69.60;;;;;;5007172;28;20202;-69
2023/07/25 12:41:44;;;;;;;1.40;1.30;;;22.60;69.70;;;;;;4975317;28;20204;-68
2023/07/25 12:44:11;;;;;;;1.45;1.20;;;22.50;69.70;;;;;;4988946;28;20211;-69
2023/07/25 12:46:40;;;;;;;1.48;1.30;;;22.50;69.70;;;;;;4983777;28;20224;-68
2023/07/25 12:49:07;;;;;;;1.48;1.38;;;22.60;69.80;;;;;;5009999;28;20184;-69
2023/07/25 12:51:32;;;;;;;2.45;1.30;;;22.50;69.70;;;;;;4977610;28;20215;-68